sensor_id;sensor_type;location;lat;lon;timestamp;P1;durP1;ratioP1;P2;durP2;ratioP2
3337;SDS011;1682;49.286;10.788;2024-02-28T00:01:50;24.37;;;12.00;;
3337;SDS011;1682;49.286;10.788;2024-02-28T00:04:39;22.73;;;12.27;;
3337;SDS011;1682;49.286;10.788;2024-02-28T00:07:27;20.30;;;11.20;;
3337;SDS011;1682;49.286;10.788;2024-02-28T00:10:15;20.57;;;10.70;;
3337;SDS011;1682;49.286;10.788;2024-02-28T00:13:04;14.90;;;9.23;;
3337;SDS011;1682;49.286;10.788;2024-02-28T00:15:52;20.67;;;12.10;;
3337;SDS011;1682;49.286;10.788;2024-02-28T00:18:40;21.13;;;12.90;;
3337;SDS011;1682;49.286;10.788;2024-02-28T00:21:27;27.63;;;13.40;;
3337;SDS011;1682;49.286;10.788;2024-02-28T00:24:15;24.07;;;11.87;;
3337;SDS011;1682;49.286;10.788;2024-02-28T00:27:02;23.47;;;12.30;;
3337;SDS011;1682;49.286;10.788;2024-02-28T00:29:51;17.50;;;10.30;;
3337;SDS011;1682;49.286;10.788;2024-02-28T00:32:39;17.27;;;11.07;;
3337;SDS011;1682;49.286;10.788;2024-02-28T00:35:26;21.33;;;12.63;;
3337;SDS011;1682;49.286;10.788;2024-02-28T00:38:14;24.93;;;12.03;;
3337;SDS011;1682;49.286;10.788;2024-02-28T00:41:01;24.43;;;10.90;;
3337;SDS011;1682;49.286;10.788;2024-02-28T00:43:49;31.67;;;9.43;;
3337;SDS011;1682;49.286;10.788;2024-02-28T00:46:38;18.03;;;12.07;;
3337;SDS011;1682;49.286;10.788;2024-02-28T00:49:26;24.97;;;11.70;;
3337;SDS011;1682;49.286;10.788;2024-02-28T00:52:13;18.23;;;10.27;;
3337;SDS011;1682;49.286;10.788;2024-02-28T00:55:01;22.37;;;11.43;;
3337;SDS011;1682;49.286;10.788;2024-02-28T00:57:50;13.80;;;8.90;;
3337;SDS011;1682;49.286;10.788;2024-02-28T01:00:37;22.03;;;12.13;;
3337;SDS011;1682;49.286;10.788;2024-02-28T01:03:26;23.47;;;12.57;;
3337;SDS011;1682;49.286;10.788;2024-02-28T01:06:14;18.67;;;10.77;;
3337;SDS011;1682;49.286;10.788;2024-02-28T01:09:02;23.20;;;12.43;;
3337;SDS011;1682;49.286;10.788;2024-02-28T01:11:50;16.00;;;9.73;;
3337;SDS011;1682;49.286;10.788;2024-02-28T01:14:37;26.20;;;11.70;;
3337;SDS011;1682;49.286;10.788;2024-02-28T01:17:25;20.40;;;10.50;;
3337;SDS011;1682;49.286;10.788;2024-02-28T01:20:14;16.03;;;10.00;;
3337;SDS011;1682;49.286;10.788;2024-02-28T01:23:01;19.20;;;11.07;;
3337;SDS011;1682;49.286;10.788;2024-02-28T01:25:49;19.73;;;10.40;;
3337;SDS011;1682;49.286;10.788;2024-02-28T01:28:36;27.07;;;11.43;;
3337;SDS011;1682;49.286;10.788;2024-02-28T01:31:24;16.43;;;10.40;;
3337;SDS011;1682;49.286;10.788;2024-02-28T01:34:11;17.10;;;10.40;;
3337;SDS011;1682;49.286;10.788;2024-02-28T01:37:00;12.93;;;9.70;;
3337;SDS011;1682;49.286;10.788;2024-02-28T01:39:47;24.70;;;12.17;;
3337;SDS011;1682;49.286;10.788;2024-02-28T01:42:35;19.37;;;9.53;;
3337;SDS011;1682;49.286;10.788;2024-02-28T01:45:23;17.50;;;9.80;;
3337;SDS011;1682;49.286;10.788;2024-02-28T01:48:10;23.10;;;14.20;;
3337;SDS011;1682;49.286;10.788;2024-02-28T01:50:58;27.30;;;10.57;;
3337;SDS011;1682;49.286;10.788;2024-02-28T01:53:47;29.87;;;12.23;;
3337;SDS011;1682;49.286;10.788;2024-02-28T01:56:36;25.37;;;12.53;;
3337;SDS011;1682;49.286;10.788;2024-02-28T01:59:24;23.73;;;9.70;;
3337;SDS011;1682;49.286;10.788;2024-02-28T02:02:12;28.33;;;12.60;;
3337;SDS011;1682;49.286;10.788;2024-02-28T02:05:00;15.93;;;10.93;;
3337;SDS011;1682;49.286;10.788;2024-02-28T02:07:47;19.73;;;11.67;;
3337;SDS011;1682;49.286;10.788;2024-02-28T02:10:36;20.80;;;11.10;;
3337;SDS011;1682;49.286;10.788;2024-02-28T02:13:24;19.57;;;9.50;;
3337;SDS011;1682;49.286;10.788;2024-02-28T02:16:11;19.00;;;10.27;;
3337;SDS011;1682;49.286;10.788;2024-02-28T02:18:59;20.43;;;11.63;;
3337;SDS011;1682;49.286;10.788;2024-02-28T02:21:48;18.50;;;10.00;;
3337;SDS011;1682;49.286;10.788;2024-02-28T02:24:38;25.10;;;11.23;;
3337;SDS011;1682;49.286;10.788;2024-02-28T02:27:25;21.03;;;12.37;;
3337;SDS011;1682;49.286;10.788;2024-02-28T02:30:13;20.00;;;12.30;;
3337;SDS011;1682;49.286;10.788;2024-02-28T02:33:00;12.87;;;8.33;;
3337;SDS011;1682;49.286;10.788;2024-02-28T02:35:48;16.00;;;9.87;;
3337;SDS011;1682;49.286;10.788;2024-02-28T02:38:35;16.00;;;8.97;;
3337;SDS011;1682;49.286;10.788;2024-02-28T02:41:24;18.53;;;10.30;;
3337;SDS011;1682;49.286;10.788;2024-02-28T02:44:12;20.57;;;11.17;;
3337;SDS011;1682;49.286;10.788;2024-02-28T02:46:59;15.97;;;8.70;;
3337;SDS011;1682;49.286;10.788;2024-02-28T02:49:47;19.90;;;10.90;;
3337;SDS011;1682;49.286;10.788;2024-02-28T02:52:34;21.23;;;11.03;;
3337;SDS011;1682;49.286;10.788;2024-02-28T02:55:22;19.13;;;10.20;;
3337;SDS011;1682;49.286;10.788;2024-02-28T02:58:11;19.17;;;12.13;;
3337;SDS011;1682;49.286;10.788;2024-02-28T03:00:58;15.60;;;10.33;;
3337;SDS011;1682;49.286;10.788;2024-02-28T03:03:46;18.20;;;9.63;;
3337;SDS011;1682;49.286;10.788;2024-02-28T03:06:33;17.93;;;10.13;;
3337;SDS011;1682;49.286;10.788;2024-02-28T03:09:21;20.60;;;10.23;;
3337;SDS011;1682;49.286;10.788;2024-02-28T03:12:08;17.00;;;8.70;;
3337;SDS011;1682;49.286;10.788;2024-02-28T03:14:57;18.23;;;9.37;;
3337;SDS011;1682;49.286;10.788;2024-02-28T03:17:45;18.40;;;8.40;;
3337;SDS011;1682;49.286;10.788;2024-02-28T03:20:32;16.17;;;10.27;;
3337;SDS011;1682;49.286;10.788;2024-02-28T03:23:22;21.07;;;11.10;;
3337;SDS011;1682;49.286;10.788;2024-02-28T03:26:09;18.17;;;10.60;;
3337;SDS011;1682;49.286;10.788;2024-02-28T03:28:57;17.00;;;11.23;;
3337;SDS011;1682;49.286;10.788;2024-02-28T03:31:46;20.50;;;9.63;;
3337;SDS011;1682;49.286;10.788;2024-02-28T03:34:33;18.93;;;9.23;;
3337;SDS011;1682;49.286;10.788;2024-02-28T03:37:21;18.07;;;11.07;;
3337;SDS011;1682;49.286;10.788;2024-02-28T03:40:08;31.03;;;14.17;;
3337;SDS011;1682;49.286;10.788;2024-02-28T03:42:56;21.50;;;12.80;;
3337;SDS011;1682;49.286;10.788;2024-02-28T03:45:44;20.90;;;11.00;;
3337;SDS011;1682;49.286;10.788;2024-02-28T03:48:33;21.70;;;12.80;;
3337;SDS011;1682;49.286;10.788;2024-02-28T03:51:20;22.00;;;11.03;;
3337;SDS011;1682;49.286;10.788;2024-02-28T03:54:08;24.20;;;13.77;;
3337;SDS011;1682;49.286;10.788;2024-02-28T03:56:56;17.67;;;9.70;;
3337;SDS011;1682;49.286;10.788;2024-02-28T03:59:44;20.70;;;12.90;;
3337;SDS011;1682;49.286;10.788;2024-02-28T04:02:32;22.27;;;12.03;;
3337;SDS011;1682;49.286;10.788;2024-02-28T04:05:21;20.17;;;11.33;;
3337;SDS011;1682;49.286;10.788;2024-02-28T04:08:09;32.30;;;12.23;;
3337;SDS011;1682;49.286;10.788;2024-02-28T04:10:56;20.67;;;10.83;;
3337;SDS011;1682;49.286;10.788;2024-02-28T04:13:44;15.90;;;11.97;;
3337;SDS011;1682;49.286;10.788;2024-02-28T04:16:31;20.70;;;10.23;;
3337;SDS011;1682;49.286;10.788;2024-02-28T04:19:19;17.23;;;11.10;;
3337;SDS011;1682;49.286;10.788;2024-02-28T04:22:08;19.17;;;11.83;;
3337;SDS011;1682;49.286;10.788;2024-02-28T04:24:55;14.40;;;9.90;;
3337;SDS011;1682;49.286;10.788;2024-02-28T04:27:43;19.27;;;9.53;;
3337;SDS011;1682;49.286;10.788;2024-02-28T04:30:31;24.70;;;13.90;;
3337;SDS011;1682;49.286;10.788;2024-02-28T04:33:19;31.80;;;12.77;;
3337;SDS011;1682;49.286;10.788;2024-02-28T04:36:06;19.97;;;11.50;;
3337;SDS011;1682;49.286;10.788;2024-02-28T04:38:55;26.27;;;12.97;;
3337;SDS011;1682;49.286;10.788;2024-02-28T04:41:43;33.20;;;15.43;;
3337;SDS011;1682;49.286;10.788;2024-02-28T04:44:30;27.23;;;13.13;;
3337;SDS011;1682;49.286;10.788;2024-02-28T04:47:18;29.20;;;12.60;;
3337;SDS011;1682;49.286;10.788;2024-02-28T04:50:06;30.00;;;14.17;;
3337;SDS011;1682;49.286;10.788;2024-02-28T04:52:53;26.77;;;13.30;;
3337;SDS011;1682;49.286;10.788;2024-02-28T04:55:42;28.57;;;13.77;;
3337;SDS011;1682;49.286;10.788;2024-02-28T04:58:30;26.17;;;13.07;;
3337;SDS011;1682;49.286;10.788;2024-02-28T05:01:17;21.20;;;13.07;;
3337;SDS011;1682;49.286;10.788;2024-02-28T05:04:05;26.80;;;12.57;;
3337;SDS011;1682;49.286;10.788;2024-02-28T05:06:52;32.93;;;12.47;;
3337;SDS011;1682;49.286;10.788;2024-02-28T05:09:40;13.57;;;8.30;;
3337;SDS011;1682;49.286;10.788;2024-02-28T05:12:29;25.20;;;13.07;;
3337;SDS011;1682;49.286;10.788;2024-02-28T05:15:17;25.70;;;13.00;;
3337;SDS011;1682;49.286;10.788;2024-02-28T05:18:05;22.90;;;11.60;;
3337;SDS011;1682;49.286;10.788;2024-02-28T05:20:52;26.67;;;13.40;;
3337;SDS011;1682;49.286;10.788;2024-02-28T05:23:40;26.33;;;12.47;;
3337;SDS011;1682;49.286;10.788;2024-02-28T05:26:27;20.57;;;10.90;;
3337;SDS011;1682;49.286;10.788;2024-02-28T05:29:18;21.03;;;9.80;;
3337;SDS011;1682;49.286;10.788;2024-02-28T05:32:05;22.00;;;11.60;;
3337;SDS011;1682;49.286;10.788;2024-02-28T05:34:54;26.13;;;11.50;;
3337;SDS011;1682;49.286;10.788;2024-02-28T05:37:41;23.40;;;12.40;;
3337;SDS011;1682;49.286;10.788;2024-02-28T05:40:29;19.80;;;11.40;;
3337;SDS011;1682;49.286;10.788;2024-02-28T05:43:16;30.27;;;13.37;;
3337;SDS011;1682;49.286;10.788;2024-02-28T05:46:05;36.07;;;14.43;;
3337;SDS011;1682;49.286;10.788;2024-02-28T05:48:53;26.47;;;10.97;;
3337;SDS011;1682;49.286;10.788;2024-02-28T05:51:40;26.60;;;11.97;;
3337;SDS011;1682;49.286;10.788;2024-02-28T05:54:28;18.27;;;11.13;;
3337;SDS011;1682;49.286;10.788;2024-02-28T05:57:16;30.10;;;14.00;;
3337;SDS011;1682;49.286;10.788;2024-02-28T06:00:04;19.43;;;10.80;;
3337;SDS011;1682;49.286;10.788;2024-02-28T06:02:56;15.93;;;10.53;;
3337;SDS011;1682;49.286;10.788;2024-02-28T06:05:44;19.30;;;10.40;;
3337;SDS011;1682;49.286;10.788;2024-02-28T06:08:32;20.13;;;10.50;;
3337;SDS011;1682;49.286;10.788;2024-02-28T06:11:19;23.70;;;11.77;;
3337;SDS011;1682;49.286;10.788;2024-02-28T06:14:07;23.20;;;10.60;;
3337;SDS011;1682;49.286;10.788;2024-02-28T06:20:17;17.90;;;10.80;;
3337;SDS011;1682;49.286;10.788;2024-02-28T06:23:05;20.80;;;11.70;;
3337;SDS011;1682;49.286;10.788;2024-02-28T06:25:53;31.70;;;12.93;;
3337;SDS011;1682;49.286;10.788;2024-02-28T06:28:40;16.83;;;9.40;;
3337;SDS011;1682;49.286;10.788;2024-02-28T06:31:30;21.93;;;10.00;;
3337;SDS011;1682;49.286;10.788;2024-02-28T06:34:18;28.37;;;11.73;;
3337;SDS011;1682;49.286;10.788;2024-02-28T06:37:07;27.53;;;13.00;;
3337;SDS011;1682;49.286;10.788;2024-02-28T06:39:54;21.00;;;9.90;;
3337;SDS011;1682;49.286;10.788;2024-02-28T06:42:42;25.47;;;11.17;;
3337;SDS011;1682;49.286;10.788;2024-02-28T06:45:29;18.60;;;10.33;;
3337;SDS011;1682;49.286;10.788;2024-02-28T06:48:17;15.17;;;9.30;;
3337;SDS011;1682;49.286;10.788;2024-02-28T06:51:04;23.33;;;12.10;;
3337;SDS011;1682;49.286;10.788;2024-02-28T06:53:53;24.63;;;12.13;;
3337;SDS011;1682;49.286;10.788;2024-02-28T06:56:40;23.77;;;10.00;;
3337;SDS011;1682;49.286;10.788;2024-02-28T06:59:28;32.70;;;10.30;;
3337;SDS011;1682;49.286;10.788;2024-02-28T07:02:15;17.57;;;11.10;;
3337;SDS011;1682;49.286;10.788;2024-02-28T07:05:03;27.17;;;11.40;;
3337;SDS011;1682;49.286;10.788;2024-02-28T07:07:52;23.67;;;11.70;;
3337;SDS011;1682;49.286;10.788;2024-02-28T07:10:41;22.27;;;10.57;;
3337;SDS011;1682;49.286;10.788;2024-02-28T07:13:29;21.97;;;11.10;;
3337;SDS011;1682;49.286;10.788;2024-02-28T07:16:17;25.43;;;11.73;;
3337;SDS011;1682;49.286;10.788;2024-02-28T07:19:04;17.70;;;8.60;;
3337;SDS011;1682;49.286;10.788;2024-02-28T07:21:52;15.73;;;9.30;;
3337;SDS011;1682;49.286;10.788;2024-02-28T07:24:39;21.97;;;12.10;;
3337;SDS011;1682;49.286;10.788;2024-02-28T07:27:28;19.90;;;9.73;;
3337;SDS011;1682;49.286;10.788;2024-02-28T07:30:16;20.17;;;11.40;;
3337;SDS011;1682;49.286;10.788;2024-02-28T07:33:04;22.23;;;10.37;;
3337;SDS011;1682;49.286;10.788;2024-02-28T07:35:53;21.30;;;10.50;;
3337;SDS011;1682;49.286;10.788;2024-02-28T07:38:46;18.37;;;9.83;;
3337;SDS011;1682;49.286;10.788;2024-02-28T07:41:33;16.77;;;10.40;;
3337;SDS011;1682;49.286;10.788;2024-02-28T07:44:22;17.87;;;10.77;;
3337;SDS011;1682;49.286;10.788;2024-02-28T07:47:10;20.37;;;12.37;;
3337;SDS011;1682;49.286;10.788;2024-02-28T07:49:57;20.83;;;10.90;;
3337;SDS011;1682;49.286;10.788;2024-02-28T07:52:45;22.13;;;12.50;;
3337;SDS011;1682;49.286;10.788;2024-02-28T07:55:32;19.07;;;9.57;;
3337;SDS011;1682;49.286;10.788;2024-02-28T07:58:20;26.87;;;9.17;;
3337;SDS011;1682;49.286;10.788;2024-02-28T08:01:08;15.43;;;9.70;;
3337;SDS011;1682;49.286;10.788;2024-02-28T08:03:56;16.77;;;8.17;;
3337;SDS011;1682;49.286;10.788;2024-02-28T08:06:45;24.37;;;9.53;;
3337;SDS011;1682;49.286;10.788;2024-02-28T08:09:32;17.27;;;8.20;;
3337;SDS011;1682;49.286;10.788;2024-02-28T08:12:20;25.93;;;12.47;;
3337;SDS011;1682;49.286;10.788;2024-02-28T08:15:07;18.57;;;9.23;;
3337;SDS011;1682;49.286;10.788;2024-02-28T08:17:57;21.60;;;9.50;;
3337;SDS011;1682;49.286;10.788;2024-02-28T08:20:44;19.30;;;10.67;;
3337;SDS011;1682;49.286;10.788;2024-02-28T08:23:32;17.70;;;10.17;;
3337;SDS011;1682;49.286;10.788;2024-02-28T08:26:19;21.27;;;9.30;;
3337;SDS011;1682;49.286;10.788;2024-02-28T08:29:07;19.30;;;9.93;;
3337;SDS011;1682;49.286;10.788;2024-02-28T08:31:54;19.67;;;11.40;;
3337;SDS011;1682;49.286;10.788;2024-02-28T08:34:44;27.73;;;11.87;;
3337;SDS011;1682;49.286;10.788;2024-02-28T08:37:32;18.63;;;9.03;;
3337;SDS011;1682;49.286;10.788;2024-02-28T08:40:20;20.50;;;11.77;;
3337;SDS011;1682;49.286;10.788;2024-02-28T08:43:07;27.23;;;12.80;;
3337;SDS011;1682;49.286;10.788;2024-02-28T08:45:55;26.90;;;11.50;;
3337;SDS011;1682;49.286;10.788;2024-02-28T08:48:42;20.43;;;11.43;;
3337;SDS011;1682;49.286;10.788;2024-02-28T08:51:31;24.57;;;12.13;;
3337;SDS011;1682;49.286;10.788;2024-02-28T08:54:18;18.40;;;11.00;;
3337;SDS011;1682;49.286;10.788;2024-02-28T08:57:06;13.83;;;10.20;;
3337;SDS011;1682;49.286;10.788;2024-02-28T08:59:53;18.27;;;10.67;;
3337;SDS011;1682;49.286;10.788;2024-02-28T09:02:41;22.73;;;9.87;;
3337;SDS011;1682;49.286;10.788;2024-02-28T09:05:28;20.43;;;9.87;;
3337;SDS011;1682;49.286;10.788;2024-02-28T09:08:17;20.97;;;9.83;;
3337;SDS011;1682;49.286;10.788;2024-02-28T09:11:05;21.17;;;10.50;;
3337;SDS011;1682;49.286;10.788;2024-02-28T09:13:52;21.17;;;11.77;;
3337;SDS011;1682;49.286;10.788;2024-02-28T09:16:40;16.23;;;8.90;;
3337;SDS011;1682;49.286;10.788;2024-02-28T09:19:27;17.63;;;8.73;;
3337;SDS011;1682;49.286;10.788;2024-02-28T09:22:15;28.93;;;10.37;;
3337;SDS011;1682;49.286;10.788;2024-02-28T09:25:05;13.90;;;8.57;;
3337;SDS011;1682;49.286;10.788;2024-02-28T09:27:54;19.90;;;9.47;;
3337;SDS011;1682;49.286;10.788;2024-02-28T09:30:42;18.63;;;8.10;;
3337;SDS011;1682;49.286;10.788;2024-02-28T09:33:32;14.50;;;8.27;;
3337;SDS011;1682;49.286;10.788;2024-02-28T09:36:20;11.53;;;7.67;;
3337;SDS011;1682;49.286;10.788;2024-02-28T09:39:07;18.60;;;9.30;;
3337;SDS011;1682;49.286;10.788;2024-02-28T09:41:56;16.53;;;7.70;;
3337;SDS011;1682;49.286;10.788;2024-02-28T09:44:44;9.00;;;6.47;;
3337;SDS011;1682;49.286;10.788;2024-02-28T09:47:32;11.43;;;8.07;;
3337;SDS011;1682;49.286;10.788;2024-02-28T09:50:19;11.57;;;6.57;;
3337;SDS011;1682;49.286;10.788;2024-02-28T09:53:07;15.20;;;8.70;;
3337;SDS011;1682;49.286;10.788;2024-02-28T09:55:55;13.17;;;9.30;;
3337;SDS011;1682;49.286;10.788;2024-02-28T09:58:44;13.00;;;8.73;;
3337;SDS011;1682;49.286;10.788;2024-02-28T10:01:33;13.30;;;6.90;;
3337;SDS011;1682;49.286;10.788;2024-02-28T10:04:23;14.80;;;9.10;;
3337;SDS011;1682;49.286;10.788;2024-02-28T10:07:13;19.40;;;9.97;;
3337;SDS011;1682;49.286;10.788;2024-02-28T10:10:00;16.20;;;10.23;;
3337;SDS011;1682;49.286;10.788;2024-02-28T10:12:49;16.17;;;9.20;;
3337;SDS011;1682;49.286;10.788;2024-02-28T10:15:38;14.13;;;8.50;;
3337;SDS011;1682;49.286;10.788;2024-02-28T10:18:25;11.80;;;9.30;;
3337;SDS011;1682;49.286;10.788;2024-02-28T10:21:13;10.70;;;7.40;;
3337;SDS011;1682;49.286;10.788;2024-02-28T10:24:01;18.40;;;8.57;;
3337;SDS011;1682;49.286;10.788;2024-02-28T10:26:49;14.23;;;6.57;;
3337;SDS011;1682;49.286;10.788;2024-02-28T10:29:40;9.93;;;5.97;;
3337;SDS011;1682;49.286;10.788;2024-02-28T10:32:31;16.53;;;6.63;;
3337;SDS011;1682;49.286;10.788;2024-02-28T10:35:19;21.53;;;5.60;;
3337;SDS011;1682;49.286;10.788;2024-02-28T10:38:10;10.83;;;5.80;;
3337;SDS011;1682;49.286;10.788;2024-02-28T10:40:58;10.30;;;7.60;;
3337;SDS011;1682;49.286;10.788;2024-02-28T10:43:46;8.47;;;6.00;;
3337;SDS011;1682;49.286;10.788;2024-02-28T10:46:36;10.27;;;6.07;;
3337;SDS011;1682;49.286;10.788;2024-02-28T10:49:26;12.57;;;7.30;;
3337;SDS011;1682;49.286;10.788;2024-02-28T10:52:13;10.50;;;7.90;;
3337;SDS011;1682;49.286;10.788;2024-02-28T10:55:02;11.10;;;6.60;;
3337;SDS011;1682;49.286;10.788;2024-02-28T10:57:50;12.33;;;7.63;;
3337;SDS011;1682;49.286;10.788;2024-02-28T11:00:42;9.27;;;6.23;;
3337;SDS011;1682;49.286;10.788;2024-02-28T11:03:31;10.37;;;7.17;;
3337;SDS011;1682;49.286;10.788;2024-02-28T11:06:20;10.57;;;7.43;;
3337;SDS011;1682;49.286;10.788;2024-02-28T11:09:09;9.17;;;6.90;;
3337;SDS011;1682;49.286;10.788;2024-02-28T11:11:59;8.77;;;7.60;;
3337;SDS011;1682;49.286;10.788;2024-02-28T11:14:55;11.20;;;7.00;;
3337;SDS011;1682;49.286;10.788;2024-02-28T11:17:42;8.97;;;7.00;;
3337;SDS011;1682;49.286;10.788;2024-02-28T11:20:31;8.07;;;6.13;;
3337;SDS011;1682;49.286;10.788;2024-02-28T11:23:20;8.33;;;6.60;;
3337;SDS011;1682;49.286;10.788;2024-02-28T11:26:07;7.63;;;5.97;;
3337;SDS011;1682;49.286;10.788;2024-02-28T11:28:55;11.50;;;6.73;;
3337;SDS011;1682;49.286;10.788;2024-02-28T11:31:42;10.60;;;6.90;;
3337;SDS011;1682;49.286;10.788;2024-02-28T11:34:30;9.30;;;6.40;;
3337;SDS011;1682;49.286;10.788;2024-02-28T11:37:17;9.50;;;7.33;;
3337;SDS011;1682;49.286;10.788;2024-02-28T11:40:08;12.80;;;7.47;;
3337;SDS011;1682;49.286;10.788;2024-02-28T11:42:57;9.80;;;5.93;;
3337;SDS011;1682;49.286;10.788;2024-02-28T11:45:44;9.63;;;5.87;;
3337;SDS011;1682;49.286;10.788;2024-02-28T11:48:32;7.57;;;5.87;;
3337;SDS011;1682;49.286;10.788;2024-02-28T11:51:20;9.67;;;5.63;;
3337;SDS011;1682;49.286;10.788;2024-02-28T11:54:08;13.13;;;7.97;;
3337;SDS011;1682;49.286;10.788;2024-02-28T11:56:58;8.23;;;6.17;;
3337;SDS011;1682;49.286;10.788;2024-02-28T11:59:46;12.80;;;9.30;;
3337;SDS011;1682;49.286;10.788;2024-02-28T12:02:34;7.60;;;6.33;;
3337;SDS011;1682;49.286;10.788;2024-02-28T12:05:22;11.20;;;6.63;;
3337;SDS011;1682;49.286;10.788;2024-02-28T12:08:09;9.20;;;6.30;;
3337;SDS011;1682;49.286;10.788;2024-02-28T12:11:05;8.97;;;6.00;;
3337;SDS011;1682;49.286;10.788;2024-02-28T12:13:54;14.07;;;6.60;;
3337;SDS011;1682;49.286;10.788;2024-02-28T12:16:42;9.97;;;6.73;;
3337;SDS011;1682;49.286;10.788;2024-02-28T12:19:31;6.73;;;5.33;;
3337;SDS011;1682;49.286;10.788;2024-02-28T12:22:18;7.30;;;5.27;;
3337;SDS011;1682;49.286;10.788;2024-02-28T12:25:06;6.93;;;5.80;;
3337;SDS011;1682;49.286;10.788;2024-02-28T12:27:54;8.93;;;6.27;;
3337;SDS011;1682;49.286;10.788;2024-02-28T12:30:43;7.20;;;5.90;;
3337;SDS011;1682;49.286;10.788;2024-02-28T12:33:31;7.57;;;5.47;;
3337;SDS011;1682;49.286;10.788;2024-02-28T12:36:19;12.20;;;7.67;;
3337;SDS011;1682;49.286;10.788;2024-02-28T12:39:06;10.67;;;6.10;;
3337;SDS011;1682;49.286;10.788;2024-02-28T12:41:56;9.83;;;6.63;;
3337;SDS011;1682;49.286;10.788;2024-02-28T12:44:44;11.97;;;6.97;;
3337;SDS011;1682;49.286;10.788;2024-02-28T12:47:33;13.03;;;7.40;;
3337;SDS011;1682;49.286;10.788;2024-02-28T12:50:21;7.93;;;6.20;;
3337;SDS011;1682;49.286;10.788;2024-02-28T12:53:09;7.00;;;5.17;;
3337;SDS011;1682;49.286;10.788;2024-02-28T12:55:57;8.97;;;6.73;;
3337;SDS011;1682;49.286;10.788;2024-02-28T12:58:45;9.70;;;6.67;;
3337;SDS011;1682;49.286;10.788;2024-02-28T13:01:32;8.17;;;6.50;;
3337;SDS011;1682;49.286;10.788;2024-02-28T13:04:21;13.50;;;7.40;;
3337;SDS011;1682;49.286;10.788;2024-02-28T13:07:11;8.93;;;6.03;;
3337;SDS011;1682;49.286;10.788;2024-02-28T13:09:58;11.23;;;8.50;;
3337;SDS011;1682;49.286;10.788;2024-02-28T13:12:46;11.10;;;6.40;;
3337;SDS011;1682;49.286;10.788;2024-02-28T13:15:33;10.40;;;7.10;;
3337;SDS011;1682;49.286;10.788;2024-02-28T13:18:20;12.40;;;6.10;;
3337;SDS011;1682;49.286;10.788;2024-02-28T13:21:10;9.07;;;5.67;;
3337;SDS011;1682;49.286;10.788;2024-02-28T13:23:57;10.20;;;5.73;;
3337;SDS011;1682;49.286;10.788;2024-02-28T13:26:45;8.27;;;5.63;;
3337;SDS011;1682;49.286;10.788;2024-02-28T13:29:32;8.27;;;6.23;;
3337;SDS011;1682;49.286;10.788;2024-02-28T13:32:20;10.17;;;7.07;;
3337;SDS011;1682;49.286;10.788;2024-02-28T13:35:07;12.47;;;7.17;;
3337;SDS011;1682;49.286;10.788;2024-02-28T13:37:57;7.73;;;5.50;;
3337;SDS011;1682;49.286;10.788;2024-02-28T13:40:45;12.60;;;6.87;;
3337;SDS011;1682;49.286;10.788;2024-02-28T13:43:33;12.37;;;7.50;;
3337;SDS011;1682;49.286;10.788;2024-02-28T13:46:20;8.27;;;5.30;;
3337;SDS011;1682;49.286;10.788;2024-02-28T13:49:08;10.80;;;6.63;;
3337;SDS011;1682;49.286;10.788;2024-02-28T13:51:55;9.20;;;6.00;;
3337;SDS011;1682;49.286;10.788;2024-02-28T13:54:44;10.07;;;6.00;;
3337;SDS011;1682;49.286;10.788;2024-02-28T13:57:32;12.40;;;7.10;;
3337;SDS011;1682;49.286;10.788;2024-02-28T14:00:20;10.70;;;7.93;;
3337;SDS011;1682;49.286;10.788;2024-02-28T14:03:09;15.13;;;9.90;;
3337;SDS011;1682;49.286;10.788;2024-02-28T14:05:56;15.03;;;8.53;;
3337;SDS011;1682;49.286;10.788;2024-02-28T14:08:44;22.63;;;10.17;;
3337;SDS011;1682;49.286;10.788;2024-02-28T14:11:33;15.30;;;9.13;;
3337;SDS011;1682;49.286;10.788;2024-02-28T14:14:20;11.30;;;7.07;;
3337;SDS011;1682;49.286;10.788;2024-02-28T14:17:08;9.77;;;6.40;;
3337;SDS011;1682;49.286;10.788;2024-02-28T14:19:55;17.47;;;6.57;;
3337;SDS011;1682;49.286;10.788;2024-02-28T14:22:43;12.53;;;6.30;;
3337;SDS011;1682;49.286;10.788;2024-02-28T14:25:31;8.53;;;6.70;;
3337;SDS011;1682;49.286;10.788;2024-02-28T14:28:19;8.87;;;6.70;;
3337;SDS011;1682;49.286;10.788;2024-02-28T14:31:07;10.50;;;8.23;;
3337;SDS011;1682;49.286;10.788;2024-02-28T14:33:55;13.67;;;7.67;;
3337;SDS011;1682;49.286;10.788;2024-02-28T14:36:43;8.77;;;6.83;;
3337;SDS011;1682;49.286;10.788;2024-02-28T14:39:30;9.70;;;6.50;;
3337;SDS011;1682;49.286;10.788;2024-02-28T14:42:18;7.77;;;6.47;;
3337;SDS011;1682;49.286;10.788;2024-02-28T14:45:07;9.57;;;5.60;;
3337;SDS011;1682;49.286;10.788;2024-02-28T14:47:55;11.97;;;7.17;;
3337;SDS011;1682;49.286;10.788;2024-02-28T14:50:43;7.50;;;5.33;;
3337;SDS011;1682;49.286;10.788;2024-02-28T14:53:30;6.27;;;4.90;;
3337;SDS011;1682;49.286;10.788;2024-02-28T14:56:18;7.27;;;4.70;;
3337;SDS011;1682;49.286;10.788;2024-02-28T14:59:05;5.70;;;5.20;;
3337;SDS011;1682;49.286;10.788;2024-02-28T15:01:55;9.77;;;6.00;;
3337;SDS011;1682;49.286;10.788;2024-02-28T15:04:43;8.67;;;6.70;;
3337;SDS011;1682;49.286;10.788;2024-02-28T15:07:30;12.03;;;7.63;;
3337;SDS011;1682;49.286;10.788;2024-02-28T15:10:18;7.63;;;5.37;;
3337;SDS011;1682;49.286;10.788;2024-02-28T15:13:06;8.00;;;4.83;;
3337;SDS011;1682;49.286;10.788;2024-02-28T15:15:54;7.43;;;4.40;;
3337;SDS011;1682;49.286;10.788;2024-02-28T15:18:43;6.10;;;4.33;;
3337;SDS011;1682;49.286;10.788;2024-02-28T15:21:31;8.63;;;6.10;;
3337;SDS011;1682;49.286;10.788;2024-02-28T15:24:18;7.30;;;6.20;;
3337;SDS011;1682;49.286;10.788;2024-02-28T15:27:06;8.37;;;5.23;;
3337;SDS011;1682;49.286;10.788;2024-02-28T15:29:54;7.87;;;6.20;;
3337;SDS011;1682;49.286;10.788;2024-02-28T15:32:42;9.17;;;6.10;;
3337;SDS011;1682;49.286;10.788;2024-02-28T15:35:31;9.50;;;5.30;;
3337;SDS011;1682;49.286;10.788;2024-02-28T15:38:19;8.50;;;5.57;;
3337;SDS011;1682;49.286;10.788;2024-02-28T15:41:07;10.40;;;5.50;;
3337;SDS011;1682;49.286;10.788;2024-02-28T15:43:54;9.10;;;5.77;;
3337;SDS011;1682;49.286;10.788;2024-02-28T15:46:42;6.40;;;5.20;;
3337;SDS011;1682;49.286;10.788;2024-02-28T15:49:29;9.80;;;6.00;;
3337;SDS011;1682;49.286;10.788;2024-02-28T15:52:18;8.73;;;6.03;;
3337;SDS011;1682;49.286;10.788;2024-02-28T15:55:06;8.37;;;5.40;;
3337;SDS011;1682;49.286;10.788;2024-02-28T15:57:53;5.73;;;5.10;;
3337;SDS011;1682;49.286;10.788;2024-02-28T16:00:41;7.50;;;6.70;;
3337;SDS011;1682;49.286;10.788;2024-02-28T16:03:28;8.00;;;5.77;;
3337;SDS011;1682;49.286;10.788;2024-02-28T16:06:16;8.03;;;6.37;;
3337;SDS011;1682;49.286;10.788;2024-02-28T16:09:07;9.13;;;6.57;;
3337;SDS011;1682;49.286;10.788;2024-02-28T16:11:55;7.23;;;5.90;;
3337;SDS011;1682;49.286;10.788;2024-02-28T16:14:43;7.40;;;5.33;;
3337;SDS011;1682;49.286;10.788;2024-02-28T16:17:30;7.40;;;4.60;;
3337;SDS011;1682;49.286;10.788;2024-02-28T16:20:18;6.03;;;5.50;;
3337;SDS011;1682;49.286;10.788;2024-02-28T16:23:05;14.13;;;10.07;;
3337;SDS011;1682;49.286;10.788;2024-02-28T16:25:54;10.20;;;6.30;;
3337;SDS011;1682;49.286;10.788;2024-02-28T16:28:43;9.73;;;6.83;;
3337;SDS011;1682;49.286;10.788;2024-02-28T16:31:30;9.03;;;7.67;;
3337;SDS011;1682;49.286;10.788;2024-02-28T16:34:18;11.70;;;6.63;;
3337;SDS011;1682;49.286;10.788;2024-02-28T16:37:05;9.57;;;8.30;;
3337;SDS011;1682;49.286;10.788;2024-02-28T16:39:53;10.47;;;9.47;;
3337;SDS011;1682;49.286;10.788;2024-02-28T16:42:42;7.97;;;7.13;;
3337;SDS011;1682;49.286;10.788;2024-02-28T16:45:29;10.10;;;7.90;;
3337;SDS011;1682;49.286;10.788;2024-02-28T16:48:17;16.83;;;12.50;;
3337;SDS011;1682;49.286;10.788;2024-02-28T16:51:04;15.03;;;10.40;;
3337;SDS011;1682;49.286;10.788;2024-02-28T16:53:52;10.43;;;6.90;;